Time;durP1;ratioP1;P1;durP2;ratioP2;P2;SDS_P1;SDS_P2;PMS_P1;PMS_P2;Temp;Humidity;BMP_temperature;BMP_pressure;BME280_temperature;BME280_humidity;BME280_pressure;Samples;Min_cycle;Max_cycle;Signal;HPM_P1;HPM_P2
2022/12/01 00:01:40;;;;;;;2.90;2.80;;;;;;;8.16;100.00;100953.50;5044446;28;20450;-55
2022/12/01 00:04:07;;;;;;;3.23;2.90;;;;;;;8.11;100.00;100953.56;5051698;28;20448;-55
2022/12/01 00:06:35;;;;;;;2.77;2.57;;;;;;;8.03;100.00;100950.06;5060784;28;20479;-55
2022/12/01 00:11:47;;;;;;;2.30;2.20;;;;;;;7.97;100.00;100950.13;5058340;28;20499;-55
2022/12/01 00:14:15;;;;;;;6.80;5.00;;;;;;;8.05;100.00;100948.28;5057564;28;20489;-55
2022/12/01 00:16:43;;;;;;;11.57;3.70;;;;;;;8.05;100.00;100952.72;5063574;28;20454;-55
2022/12/01 00:19:09;;;;;;;4.47;3.93;;;;;;;7.96;100.00;100951.91;5064435;28;20477;-55
2022/12/01 00:21:36;;;;;;;7.40;5.13;;;;;;;7.98;100.00;100951.88;5058739;28;20446;-55
2022/12/01 00:24:02;;;;;;;5.07;4.57;;;;;;;7.97;100.00;100950.13;5057316;28;20455;-55
2022/12/01 00:26:29;;;;;;;3.03;2.83;;;;;;;8.09;100.00;100947.41;5063302;28;20811;-56
2022/12/01 00:28:57;;;;;;;4.60;4.17;;;;;;;7.98;100.00;100950.13;5065127;28;20515;-55
2022/12/01 00:31:25;;;;;;;3.33;3.13;;;;;;;8.02;100.00;100951.84;5060519;28;20911;-55
2022/12/01 00:33:52;;;;;;;3.37;2.43;;;;;;;7.91;100.00;100951.03;5057412;28;20476;-55
2022/12/01 00:36:18;;;;;;;4.47;4.17;;;;;;;7.65;100.00;100959.16;5039277;28;20458;-56
2022/12/01 00:38:45;;;;;;;3.27;2.47;;;;;;;7.28;100.00;100954.94;5052625;28;20453;-55
2022/12/01 00:41:11;;;;;;;2.00;1.90;;;;;;;7.30;100.00;100958.47;5053881;28;20458;-55
2022/12/01 00:43:38;;;;;;;2.23;2.13;;;;;;;7.04;100.00;100958.56;5048506;28;20455;-55
2022/12/01 00:46:05;;;;;;;6.27;3.13;;;;;;;7.00;100.00;100954.19;5062067;28;20467;-55
2022/12/01 00:48:31;;;;;;;1.73;1.63;;;;;;;6.95;100.00;100958.59;5062034;28;20453;-55
2022/12/01 00:50:58;;;;;;;2.27;1.90;;;;;;;7.07;100.00;100955.91;5039789;28;20828;-55
2022/12/01 00:53:24;;;;;;;1.97;1.60;;;;;;;7.17;100.00;100952.34;5064014;28;20450;-55
2022/12/01 00:55:52;;;;;;;3.20;3.00;;;;;;;6.93;100.00;100958.59;5050489;28;20471;-55
2022/12/01 00:58:19;;;;;;;10.83;2.50;;;;;;;7.07;100.00;100945.34;5050243;28;20462;-55
2022/12/01 01:00:46;;;;;;;3.70;2.63;;;;;;;6.98;100.00;100962.09;5058968;28;21007;-55
2022/12/01 01:03:13;;;;;;;3.13;2.93;;;;;;;6.95;100.00;100955.94;5036567;28;20464;-55
2022/12/01 01:05:41;;;;;;;2.60;2.40;;;;;;;6.89;100.00;100955.97;5051204;28;20476;-55
2022/12/01 01:08:09;;;;;;;3.03;2.27;;;;;;;6.88;100.00;100964.78;5047000;28;20454;-55
2022/12/01 01:10:40;;;;;;;4.03;1.50;;;;;;;6.91;100.00;100957.72;5051086;28;20455;-55
2022/12/01 01:13:07;;;;;;;1.57;1.43;;;;;;;6.93;100.00;100955.94;5059888;28;20514;-55
2022/12/01 01:15:34;;;;;;;13.33;3.80;;;;;;;6.83;100.00;100965.66;5030650;28;20468;-55
2022/12/01 01:18:01;;;;;;;3.87;3.53;;;;;;;7.04;100.00;100972.66;5061773;28;20458;-55
2022/12/01 01:20:27;;;;;;;4.30;2.30;;;;;;;6.89;100.00;100964.78;5061185;28;20453;-55
2022/12/01 01:22:54;;;;;;;1.27;1.17;;;;;;;6.95;100.00;100970.03;5065785;28;20501;-55
2022/12/01 01:25:21;;;;;;;6.70;1.77;;;;;;;7.02;100.00;100973.56;5050111;28;20474;-55
2022/12/01 01:27:48;;;;;;;2.63;2.43;;;;;;;6.86;100.00;100970.09;5063713;28;20451;-55
2022/12/01 01:30:15;;;;;;;2.37;2.27;;;;;;;6.81;100.00;100972.72;5061803;28;20450;-55
2022/12/01 01:32:41;;;;;;;2.07;1.83;;;;;;;6.86;100.00;100969.19;5054558;28;20485;-55
2022/12/01 01:35:08;;;;;;;1.57;1.47;;;;;;;6.85;100.00;100978.84;5069879;28;20539;-55
2022/12/01 01:37:34;;;;;;;3.70;3.40;;;;;;;6.89;100.00;100983.28;5051691;28;20455;-55
2022/12/01 01:40:00;;;;;;;7.83;3.03;;;;;;;6.94;100.00;100975.31;5061226;28;20450;-55
2022/12/01 01:42:27;;;;;;;2.03;1.93;;;;;;;7.21;100.00;100983.16;5051941;28;20447;-55
2022/12/01 01:44:58;;;;;;;2.07;1.97;;;;;;;7.03;100.00;100980.59;5061209;28;20890;-55
2022/12/01 01:47:33;;;;;;;2.40;2.20;;;;;;;6.89;100.00;100990.31;5056318;28;20827;-55
2022/12/01 01:50:08;;;;;;;3.33;2.57;;;;;;;6.90;100.00;100990.31;5056973;28;20447;-55
2022/12/01 01:52:37;;;;;;;5.37;4.97;;;;;;;6.77;100.00;100992.09;5050039;28;20508;-55
2022/12/01 01:55:04;;;;;;;8.67;3.73;;;;;;;6.73;100.00;100998.28;5062530;28;20521;-55
2022/12/01 01:57:32;;;;;;;4.47;4.13;;;;;;;6.58;100.00;100990.38;5060479;28;20449;-55
2022/12/01 02:00:11;;;;;;;3.03;2.93;;;;;;;6.62;100.00;100989.50;5057405;28;20450;-55
2022/12/01 02:02:42;;;;;;;5.03;4.07;;;;;;;6.60;100.00;100996.53;5059150;28;20435;-55
2022/12/01 02:05:14;;;;;;;3.30;2.67;;;;;;;6.60;100.00;100990.38;5056553;28;20466;-55
2022/12/01 02:07:41;;;;;;;3.03;2.80;;;;;;;6.61;100.00;100985.09;5057488;28;20450;-55
2022/12/01 02:10:12;;;;;;;3.07;2.93;;;;;;;6.49;100.00;100993.03;5037605;28;20515;-55
2022/12/01 02:13:03;;;;;;;4.30;2.73;;;;;;;6.47;100.00;101003.59;5067682;28;20481;-55
2022/12/01 02:15:36;;;;;;;3.77;3.23;;;;;;;6.45;100.00;100993.91;5066960;28;20469;-55
2022/12/01 02:18:29;;;;;;;2.83;2.70;;;;;;;6.48;100.00;100988.63;5049615;28;20442;-55
2022/12/01 02:21:04;;;;;;;2.60;2.33;;;;;;;6.40;100.00;100985.97;5058351;28;20488;-55
2022/12/01 02:24:07;;;;;;;3.27;3.17;;;;;;;6.17;100.00;100991.28;5045200;28;20858;-55
2022/12/01 02:27:05;;;;;;;1.90;1.80;;;;;;;6.06;100.00;100994.78;5063114;28;20449;-55
2022/12/01 02:29:53;;;;;;;3.43;3.27;;;;;;;6.02;100.00;100996.50;5047752;28;20881;-55
2022/12/01 02:32:50;;;;;;;4.37;3.60;;;;;;;6.14;100.00;100993.00;5047401;28;20522;-55
2022/12/01 02:35:38;;;;;;;6.33;5.23;;;;;;;6.02;100.00;100993.00;5060294;28;20490;-54
2022/12/01 02:38:18;;;;;;;4.47;3.63;;;;;;;6.22;100.00;101000.06;5062140;28;20454;-55
2022/12/01 02:41:18;;;;;;;5.70;2.37;;;;;;;6.21;100.00;100990.38;5066536;28;20469;-55
2022/12/01 02:43:53;;;;;;;11.10;2.60;;;;;;;6.06;100.00;100993.00;5066033;28;20513;-54
2022/12/01 02:46:26;;;;;;;5.87;2.97;;;;;;;6.04;100.00;100988.63;5064852;28;20544;-54
2022/12/01 02:48:57;;;;;;;4.47;4.07;;;;;;;6.01;100.00;100992.09;5059111;28;20452;-54
2022/12/01 02:51:29;;;;;;;2.97;2.67;;;;;;;6.06;100.00;100992.13;5058825;28;20936;-55
2022/12/01 02:53:58;;;;;;;8.83;1.90;;;;;;;6.04;100.00;100994.78;5065062;28;20454;-54
2022/12/01 02:56:26;;;;;;;4.57;3.40;;;;;;;5.92;100.00;101002.66;5041195;28;20459;-55
2022/12/01 02:58:52;;;;;;;5.10;3.10;;;;;;;5.90;100.00;101007.06;5065220;28;20510;-55
2022/12/01 03:01:45;;;;;;;5.63;1.80;;;;;;;5.90;100.00;101007.06;5062779;28;20454;-54
2022/12/01 03:04:49;;;;;;;6.50;2.47;;;;;;;5.91;100.00;101017.63;5061648;28;20482;-54
2022/12/01 03:07:44;;;;;;;2.33;2.23;;;;;;;5.74;100.00;101005.22;5051103;28;20449;-55
2022/12/01 03:10:28;;;;;;;8.33;3.27;;;;;;;5.79;100.00;101011.41;5017851;28;21030;-54
2022/12/01 03:13:13;;;;;;;2.57;1.30;;;;;;;5.82;100.00;101008.75;5058655;28;20865;-54
2022/12/01 03:16:08;;;;;;;6.57;2.10;;;;;;;5.64;100.00;101004.31;5071951;28;20461;-54
2022/12/01 03:18:40;;;;;;;14.47;4.97;;;;;;;5.59;100.00;101001.66;5063111;28;20479;-54
2022/12/01 03:21:23;;;;;;;7.63;3.47;;;;;;;5.73;100.00;101001.69;5065737;28;20458;-54
2022/12/01 03:23:55;;;;;;;2.53;1.17;;;;;;;5.81;100.00;101001.72;5062294;28;20441;-54
2022/12/01 03:26:25;;;;;;;6.90;4.13;;;;;;;5.66;100.00;100997.28;5045593;28;20445;-54
2022/12/01 03:28:55;;;;;;;2.70;2.60;;;;;;;5.71;100.00;101006.09;5072032;28;20454;-55
2022/12/01 03:31:28;;;;;;;3.30;2.97;;;;;;;5.58;100.00;101005.16;5049981;28;20502;-54
2022/12/01 03:33:59;;;;;;;3.00;2.80;;;;;;;5.69;100.00;101002.56;5049629;28;20944;-55
2022/12/01 03:36:31;;;;;;;2.03;1.90;;;;;;;5.72;100.00;101007.84;5062350;28;20454;-54
2022/12/01 03:39:03;;;;;;;5.03;4.60;;;;;;;5.54;100.00;101007.81;5068801;28;20503;-54
2022/12/01 03:41:40;;;;;;;2.97;2.40;;;;;;;5.60;100.00;101003.41;5059583;28;20451;-54
2022/12/01 03:44:12;;;;;;;4.13;2.07;;;;;;;5.44;100.00;101004.25;5065017;28;20457;-54
2022/12/01 03:46:50;;;;;;;3.87;3.67;;;;;;;5.55;100.00;101010.44;5064914;28;20454;-54
2022/12/01 03:49:17;;;;;;;19.33;3.97;;;;;;;5.53;100.00;101004.28;5051912;28;20548;-54
2022/12/01 03:51:54;;;;;;;6.33;4.73;;;;;;;5.59;100.00;101009.56;5065036;28;20473;-54
2022/12/01 03:54:30;;;;;;;3.60;3.33;;;;;;;5.56;100.00;101009.56;5061649;28;20470;-54
2022/12/01 03:57:04;;;;;;;4.70;2.70;;;;;;;5.63;100.00;101015.75;5057851;28;20452;-54
2022/12/01 03:59:34;;;;;;;7.50;3.37;;;;;;;5.61;100.00;101009.56;5071520;28;20442;-54
2022/12/01 04:02:01;;;;;;;2.90;2.80;;;;;;;5.63;100.00;101008.72;5067791;28;20464;-54
2022/12/01 04:04:27;;;;;;;3.97;3.57;;;;;;;5.63;100.00;101011.38;5044967;28;20556;-54
2022/12/01 04:06:54;;;;;;;11.13;4.73;;;;;;;5.63;100.00;101015.75;5045015;28;20522;-54
2022/12/01 04:09:20;;;;;;;10.10;2.70;;;;;;;5.69;100.00;101010.47;5057879;28;20454;-54
2022/12/01 04:14:31;;;;;;;6.37;3.57;;;;;;;5.57;100.00;101018.34;5057329;28;20520;-54
2022/12/01 04:16:58;;;;;;;11.50;3.33;;;;;;;5.46;100.00;101026.22;5062217;28;20461;-54
2022/12/01 04:19:24;;;;;;;4.97;4.67;;;;;;;5.57;100.00;101023.63;5064486;28;20454;-54
2022/12/01 04:21:50;;;;;;;4.40;3.77;;;;;;;5.74;100.00;101028.94;5060683;28;20503;-54
2022/12/01 04:24:17;;;;;;;9.20;5.20;;;;;;;5.53;100.00;101025.38;5057592;28;20996;-54
2022/12/01 04:26:44;;;;;;;13.23;3.03;;;;;;;5.44;100.00;101030.59;5061297;28;20451;-54
2022/12/01 04:29:11;;;;;;;5.90;4.37;;;;;;;5.46;100.00;101027.97;5053989;28;20545;-54
2022/12/01 04:31:38;;;;;;;11.90;4.23;;;;;;;5.35;100.00;101025.31;5061179;28;20451;-54
2022/12/01 04:34:06;;;;;;;5.07;3.50;;;;;;;5.37;100.00;101034.09;5063695;28;20466;-54
2022/12/01 04:36:33;;;;;;;4.20;3.10;;;;;;;5.42;100.00;101027.09;5061389;28;20446;-54
2022/12/01 04:39:01;;;;;;;10.87;3.87;;;;;;;5.60;100.00;101027.16;5057249;28;20491;-54
2022/12/01 04:41:28;;;;;;;5.00;4.33;;;;;;;5.66;100.00;101028.94;5060147;28;20461;-54
2022/12/01 04:43:55;;;;;;;6.60;6.03;;;;;;;5.43;100.00;101028.84;5063795;28;20516;-54
2022/12/01 04:46:22;;;;;;;6.20;3.33;;;;;;;5.38;100.00;101025.31;5061681;28;20449;-54
2022/12/01 04:48:49;;;;;;;13.83;5.67;;;;;;;5.37;100.00;101022.69;5056927;28;20446;-54
2022/12/01 04:51:16;;;;;;;7.40;3.97;;;;;;;5.39;100.00;101021.81;5058990;28;20499;-54
2022/12/01 04:53:42;;;;;;;10.23;5.30;;;;;;;5.38;100.00;101027.97;5063469;28;20490;-54
2022/12/01 04:56:09;;;;;;;8.03;5.50;;;;;;;5.40;100.00;101028.84;5050554;28;20470;-54
2022/12/01 04:58:36;;;;;;;8.13;5.97;;;;;;;5.35;100.00;101028.84;5063784;28;20451;-54
2022/12/01 05:01:07;;;;;;;3.93;3.60;;;;;;;5.31;100.00;101026.16;5060003;28;20453;-54
2022/12/01 05:03:38;;;;;;;7.60;4.47;;;;;;;5.45;100.00;101023.56;5063813;28;20960;-54
2022/12/01 05:06:11;;;;;;;2.90;2.50;;;;;;;5.39;100.00;101026.19;5063118;28;20470;-55
2022/12/01 05:08:37;;;;;;;7.53;3.77;;;;;;;5.34;100.00;101037.63;5058903;28;20445;-54
2022/12/01 05:11:06;;;;;;;3.80;3.50;;;;;;;5.31;100.00;101034.94;5056923;28;20455;-54
2022/12/01 05:13:40;;;;;;;4.87;3.77;;;;;;;5.35;100.00;101031.47;5061836;28;20491;-54
2022/12/01 05:16:10;;;;;;;6.60;3.93;;;;;;;5.23;100.00;101030.53;5065982;28;20469;-54
2022/12/01 05:18:38;;;;;;;1.97;1.87;;;;;;;5.25;100.00;101029.66;5059134;28;20526;-54
2022/12/01 05:21:07;;;;;;;3.27;3.00;;;;;;;5.25;100.00;101031.41;5064101;28;20466;-54
2022/12/01 05:23:35;;;;;;;9.93;4.07;;;;;;;5.28;100.00;101029.66;5050483;28;21021;-54
2022/12/01 05:26:04;;;;;;;3.33;2.33;;;;;;;5.34;100.00;101034.06;5059267;28;20479;-54
2022/12/01 05:28:30;;;;;;;6.87;2.87;;;;;;;5.24;100.00;101027.00;5041327;28;20454;-54
2022/12/01 05:30:57;;;;;;;6.53;2.63;;;;;;;5.38;100.00;101027.06;5063342;28;20824;-55
2022/12/01 05:33:25;;;;;;;3.70;2.97;;;;;;;5.23;100.00;101033.16;5060764;28;20534;-54
2022/12/01 05:35:52;;;;;;;3.77;3.47;;;;;;;5.35;100.00;101036.75;5056071;28;20482;-54
2022/12/01 05:38:19;;;;;;;27.83;4.00;;;;;;;5.48;100.00;101042.03;5057542;28;20812;-55
2022/12/01 05:40:51;;;;;;;12.93;4.43;;;;;;;5.31;100.00;101039.31;5062873;28;20512;-54
2022/12/01 05:43:18;;;;;;;8.13;3.20;;;;;;;5.26;100.00;101041.06;5062584;28;20533;-54
2022/12/01 05:45:53;;;;;;;9.77;6.27;;;;;;;5.50;100.00;101038.56;5044326;28;20560;-54
2022/12/01 05:48:19;;;;;;;8.23;5.00;;;;;;;5.41;100.00;101037.63;5054762;28;20478;-54
2022/12/01 05:50:46;;;;;;;3.50;3.20;;;;;;;5.53;100.00;101045.59;5057759;28;20458;-54
2022/12/01 05:53:13;;;;;;;3.20;2.90;;;;;;;5.35;100.00;101042.00;5054273;28;20486;-54
2022/12/01 05:55:40;;;;;;;13.43;4.30;;;;;;;5.14;100.00;101046.28;5042411;28;20500;-54
2022/12/01 05:58:07;;;;;;;7.27;4.30;;;;;;;5.27;100.00;101048.09;5057533;28;20808;-54
2022/12/01 06:00:34;;;;;;;6.90;2.73;;;;;;;5.15;100.00;101042.75;5056992;28;20454;-54
2022/12/01 06:03:05;;;;;;;4.93;3.70;;;;;;;5.17;100.00;101048.91;5064018;28;20500;-54
2022/12/01 06:05:31;;;;;;;6.97;6.33;;;;;;;5.23;100.00;101051.59;5057968;28;20827;-54
2022/12/01 06:07:58;;;;;;;4.87;4.47;;;;;;;5.24;100.00;101046.34;5056034;28;20451;-54
2022/12/01 06:10:24;;;;;;;3.30;2.17;;;;;;;5.01;100.00;101047.94;5060939;28;20454;-54
2022/12/01 06:12:50;;;;;;;3.90;3.60;;;;;;;5.20;100.00;101052.44;5062701;28;20490;-54
2022/12/01 06:15:17;;;;;;;11.70;4.60;;;;;;;5.24;100.00;101058.63;5057660;28;20472;-54
2022/12/01 06:17:43;;;;;;;4.13;2.80;;;;;;;5.05;100.00;101058.50;5054151;28;20450;-54
2022/12/01 06:20:11;;;;;;;4.37;4.07;;;;;;;5.28;100.00;101053.38;5057804;28;20993;-54
2022/12/01 06:22:37;;;;;;;8.00;3.60;;;;;;;5.26;100.00;101056.88;5055965;28;20451;-54
2022/12/01 06:25:04;;;;;;;4.13;3.10;;;;;;;4.95;100.00;101059.34;5060519;28;20824;-54
2022/12/01 06:27:30;;;;;;;16.30;3.70;;;;;;;5.04;100.00;101061.13;5062606;28;20822;-54
2022/12/01 06:29:57;;;;;;;7.20;4.77;;;;;;;5.11;100.00;101059.44;5058004;28;20959;-54
2022/12/01 06:32:23;;;;;;;5.33;4.90;;;;;;;5.29;100.00;101059.53;5053114;28;20451;-54
2022/12/01 06:34:49;;;;;;;5.80;5.30;;;;;;;5.22;100.00;101060.38;5058202;28;20473;-54
2022/12/01 06:37:16;;;;;;;13.93;5.83;;;;;;;5.04;100.00;101062.03;5055644;28;20458;-54
2022/12/01 06:39:42;;;;;;;3.00;2.90;;;;;;;5.09;100.00;101063.81;5068952;28;20449;-54
2022/12/01 06:42:09;;;;;;;7.03;2.70;;;;;;;4.88;100.00;101060.16;5054122;28;20576;-54
2022/12/01 06:44:35;;;;;;;5.43;4.93;;;;;;;4.94;100.00;101065.50;5059135;28;20896;-54
2022/12/01 06:47:02;;;;;;;13.50;3.43;;;;;;;5.11;100.00;101062.94;5062104;28;20955;-54
2022/12/01 06:49:28;;;;;;;4.93;4.47;;;;;;;4.98;100.00;101066.38;5059167;28;20453;-54
2022/12/01 06:51:55;;;;;;;3.27;3.07;;;;;;;5.23;100.00;101068.31;5055355;28;20457;-54
2022/12/01 06:54:21;;;;;;;2.27;2.17;;;;;;;4.87;100.00;101073.31;5058245;28;20551;-54
2022/12/01 06:56:48;;;;;;;3.43;3.27;;;;;;;4.91;100.00;101075.09;5035574;28;20455;-54
2022/12/01 06:59:14;;;;;;;3.17;2.97;;;;;;;4.81;100.00;101079.44;5062581;28;20580;-54
2022/12/01 07:01:41;;;;;;;2.80;2.60;;;;;;;4.87;100.00;101081.22;5059078;28;20449;-54
2022/12/01 07:04:07;;;;;;;5.73;5.17;;;;;;;5.04;100.00;101083.09;5061746;28;21938;-54
2022/12/01 07:06:34;;;;;;;4.50;4.10;;;;;;;4.89;100.00;101090.00;5065788;28;21069;-54
2022/12/01 07:09:00;;;;;;;2.90;2.77;;;;;;;4.89;100.00;101092.66;5062821;28;20456;-54
2022/12/01 07:11:27;;;;;;;7.40;1.93;;;;;;;4.85;100.00;101097.03;5054830;28;20451;-54
2022/12/01 07:13:55;;;;;;;8.73;4.83;;;;;;;4.80;100.00;101097.84;5063138;28;20521;-54
2022/12/01 07:16:22;;;;;;;4.40;3.77;;;;;;;4.79;100.00;101101.34;5058370;28;20460;-54
2022/12/01 07:18:48;;;;;;;2.67;2.57;;;;;;;5.11;100.00;101098.97;5060985;28;20485;-54
2022/12/01 07:21:15;;;;;;;4.93;4.43;;;;;;;4.95;100.00;101114.66;5065604;28;20457;-54
2022/12/01 07:23:42;;;;;;;21.00;5.20;;;;;;;4.77;100.00;101111.88;5063402;28;21004;-54
2022/12/01 07:26:14;;;;;;;3.97;3.63;;;;;;;4.73;100.00;101112.72;5058540;28;20480;-54
2022/12/01 07:28:41;;;;;;;9.80;4.13;;;;;;;4.63;100.00;101113.50;5059621;28;20497;-54
2022/12/01 07:31:10;;;;;;;15.90;7.77;;;;;;;4.61;100.00;101112.59;5064988;28;20451;-54
2022/12/01 07:33:38;;;;;;;4.03;3.83;;;;;;;4.80;100.00;101119.81;5065257;28;20485;-54
2022/12/01 07:36:05;;;;;;;5.20;1.70;;;;;;;4.57;100.00;101124.00;5044605;28;20834;-54
2022/12/01 07:38:32;;;;;;;3.63;3.33;;;;;;;4.77;100.00;101122.41;5058507;28;20879;-54
2022/12/01 07:41:13;;;;;;;5.60;5.20;;;;;;;4.66;100.00;101126.69;5065055;28;20450;-54
2022/12/01 07:43:40;;;;;;;5.40;4.20;;;;;;;4.70;100.00;101118.84;5065224;28;20442;-54
2022/12/01 07:46:12;;;;;;;9.27;3.37;;;;;;;4.71;100.00;101125.88;5062236;28;20465;-54
2022/12/01 07:48:47;;;;;;;14.57;6.50;;;;;;;4.73;100.00;101133.78;5058603;28;20847;-54
2022/12/01 07:51:15;;;;;;;4.53;3.30;;;;;;;4.67;100.00;101128.47;5060860;28;20451;-54
2022/12/01 07:53:43;;;;;;;5.73;2.73;;;;;;;4.66;100.00;101132.88;5065423;28;20490;-55
2022/12/01 07:56:10;;;;;;;14.67;4.20;;;;;;;4.67;100.00;101128.47;5051613;28;20497;-54
2022/12/01 07:58:37;;;;;;;16.53;4.23;;;;;;;4.81;100.00;101131.22;5056725;28;20460;-54
2022/12/01 08:01:08;;;;;;;3.80;3.60;;;;;;;4.93;100.00;101126.91;5058188;28;20879;-54
2022/12/01 08:03:35;;;;;;;3.43;3.23;;;;;;;4.71;100.00;101135.53;5066481;28;20446;-54
2022/12/01 08:06:03;;;;;;;8.17;5.30;;;;;;;4.67;100.00;101134.63;5064857;28;20481;-54
2022/12/01 08:08:31;;;;;;;4.13;3.83;;;;;;;4.87;100.00;101134.78;5044992;28;20465;-54
2022/12/01 08:11:03;;;;;;;8.10;5.60;;;;;;;4.71;100.00;101138.16;5057202;28;20461;-54
2022/12/01 08:13:30;;;;;;;11.73;4.53;;;;;;;4.99;100.00;101134.88;5063827;28;20494;-54
2022/12/01 08:15:57;;;;;;;3.97;3.20;;;;;;;4.96;100.00;101136.63;5064319;28;20473;-54
2022/12/01 08:18:23;;;;;;;4.50;3.77;;;;;;;4.81;100.00;101134.75;5059508;28;20454;-54
2022/12/01 08:20:50;;;;;;;4.07;2.93;;;;;;;4.74;100.00;101143.44;5056224;28;20458;-54
2022/12/01 08:23:16;;;;;;;6.57;4.70;;;;;;;4.64;100.00;101149.50;5059575;28;20939;-54
2022/12/01 08:25:43;;;;;;;3.60;3.30;;;;;;;4.81;100.00;101144.41;5057545;28;20521;-54
2022/12/01 08:28:09;;;;;;;10.87;4.13;;;;;;;4.85;100.00;101141.78;5062788;28;20451;-54
2022/12/01 08:30:36;;;;;;;4.70;4.40;;;;;;;4.89;100.00;101146.22;5062501;28;20507;-54
2022/12/01 08:33:02;;;;;;;11.87;7.47;;;;;;;5.19;100.00;101149.94;5039433;28;20486;-54
2022/12/01 08:35:28;;;;;;;5.77;5.17;;;;;;;4.98;100.00;101145.41;5064683;28;20489;-54
2022/12/01 08:37:55;;;;;;;4.53;4.10;;;;;;;4.87;100.00;101153.22;5059587;28;20450;-54
2022/12/01 08:40:21;;;;;;;4.50;3.77;;;;;;;4.82;100.00;101151.44;5057332;28;20451;-53
2022/12/01 08:42:50;;;;;;;5.93;3.70;;;;;;;4.80;100.00;101156.69;5062160;28;20501;-54
2022/12/01 08:45:16;;;;;;;8.50;3.40;;;;;;;4.85;100.00;101159.34;5063795;28;20474;-54
2022/12/01 08:47:43;;;;;;;8.10;4.13;;;;;;;4.90;100.00;101152.34;5050860;28;20993;-54
2022/12/01 08:50:11;;;;;;;8.17;7.47;;;;;;;4.81;100.00;101162.84;5064512;28;20457;-54
2022/12/01 08:52:37;;;;;;;12.70;6.57;;;;;;;4.76;100.00;101163.66;5060092;28;20464;-53
2022/12/01 08:55:05;;;;;;;5.10;4.67;;;;;;;4.80;100.00;101161.97;5050934;28;20492;-53
2022/12/01 08:57:31;;;;;;;5.53;5.07;;;;;;;4.99;100.00;101153.31;5049457;28;20449;-54
2022/12/01 08:59:58;;;;;;;9.70;4.23;;;;;;;4.82;100.00;101156.69;5056695;28;20830;-53
2022/12/01 09:02:24;;;;;;;4.63;3.27;;;;;;;4.79;100.00;101164.53;5066957;28;20457;-53
2022/12/01 09:04:51;;;;;;;7.93;5.53;;;;;;;4.78;100.00;101161.03;5056555;28;20477;-54
2022/12/01 09:07:18;;;;;;;11.50;3.60;;;;;;;4.75;100.00;101161.88;5060293;28;20920;-54
2022/12/01 09:09:51;;;;;;;4.70;3.60;;;;;;;4.67;100.00;101167.97;5063383;28;20462;-53
2022/12/01 09:12:18;;;;;;;12.37;4.33;;;;;;;4.70;100.00;101158.34;5061122;28;20967;-53
2022/12/01 09:14:46;;;;;;;3.83;3.40;;;;;;;4.71;100.00;101161.84;5056355;28;20494;-54
2022/12/01 09:17:14;;;;;;;6.67;6.00;;;;;;;4.59;100.00;101167.00;5058448;28;20459;-54
2022/12/01 09:19:41;;;;;;;3.47;2.77;;;;;;;4.63;100.00;101174.94;5058287;28;20505;-54
2022/12/01 09:22:09;;;;;;;4.47;3.53;;;;;;;4.71;100.00;101172.41;5053130;28;20450;-54
2022/12/01 09:24:36;;;;;;;3.87;2.73;;;;;;;4.59;100.00;101181.06;5038064;28;20474;-54
2022/12/01 09:27:02;;;;;;;11.20;5.00;;;;;;;4.76;100.00;101183.84;5062169;28;20454;-54
2022/12/01 09:29:30;;;;;;;5.07;4.63;;;;;;;4.63;100.00;101174.06;5037718;28;20926;-54
2022/12/01 09:31:57;;;;;;;5.23;3.87;;;;;;;4.75;100.00;101174.19;5043064;28;20883;-53
2022/12/01 09:34:25;;;;;;;6.97;5.00;;;;;;;4.62;100.00;101177.56;5054382;28;20866;-54
2022/12/01 09:36:57;;;;;;;54.73;3.63;;;;;;;4.69;100.00;101176.78;5056690;28;20508;-54
2022/12/01 09:39:24;;;;;;;6.60;4.53;;;;;;;4.60;100.00;101181.94;5043815;28;21006;-54
2022/12/01 09:42:21;;;;;;;5.70;3.40;;;;;;;4.62;100.00;101175.81;5056048;28;20829;-54
2022/12/01 09:44:51;;;;;;;7.73;2.27;;;;;;;4.77;100.00;101172.44;5055330;28;21022;-54
2022/12/01 09:47:33;;;;;;;5.73;3.00;;;;;;;4.67;100.00;101168.84;5062710;28;21009;-54
2022/12/01 09:50:06;;;;;;;3.60;2.50;;;;;;;4.65;100.00;101167.94;5062605;28;20541;-54
2022/12/01 09:52:39;;;;;;;11.60;5.60;;;;;;;4.59;100.00;101165.25;5058347;28;20458;-54
2022/12/01 09:55:11;;;;;;;2.30;2.13;;;;;;;4.65;100.00;101167.06;5053539;28;20495;-54
2022/12/01 09:57:39;;;;;;;3.30;3.10;;;;;;;4.76;100.00;101158.38;5060030;28;20996;-54
2022/12/01 10:00:13;;;;;;;5.17;3.40;;;;;;;4.75;100.00;101155.75;5055790;28;20450;-53
2022/12/01 10:02:52;;;;;;;6.77;3.27;;;;;;;5.22;100.00;101160.53;5066205;28;20446;-54
2022/12/01 10:05:22;;;;;;;4.13;3.83;;;;;;;5.00;100.00;101148.94;5062775;28;20475;-54
2022/12/01 10:07:57;;;;;;;5.67;3.43;;;;;;;4.97;100.00;101147.16;5062697;28;20449;-54
2022/12/01 10:10:33;;;;;;;2.90;2.20;;;;;;;5.02;100.00;101142.81;5057720;28;20480;-54
2022/12/01 10:13:00;;;;;;;5.60;3.20;;;;;;;4.89;100.00;101140.06;5055518;28;20830;-54
2022/12/01 10:15:45;;;;;;;1.97;1.87;;;;;;;4.86;100.00;101143.56;5059042;28;20544;-54
2022/12/01 10:18:31;;;;;;;8.60;4.17;;;;;;;4.96;100.00;101145.41;5062543;28;20450;-54
2022/12/01 10:21:35;;;;;;;4.77;4.30;;;;;;;4.78;100.00;101145.22;5062313;28;20508;-54
2022/12/01 10:24:16;;;;;;;8.73;2.73;;;;;;;4.80;100.00;101134.69;5062498;28;20454;-54
2022/12/01 10:26:50;;;;;;;4.00;3.33;;;;;;;5.01;100.00;101133.13;5058287;28;20449;-54
2022/12/01 10:29:45;;;;;;;6.13;2.10;;;;;;;4.85;100.00;101133.00;5055477;28;20938;-54
2022/12/01 10:32:19;;;;;;;4.47;2.90;;;;;;;4.81;100.00;101129.47;5055499;28;20447;-54
2022/12/01 10:34:46;;;;;;;7.03;2.10;;;;;;;4.86;100.00;101125.13;5064674;28;20537;-54
2022/12/01 10:37:20;;;;;;;1.33;1.23;;;;;;;4.85;100.00;101128.63;5066321;28;20457;-54
2022/12/01 10:39:50;;;;;;;4.60;4.20;;;;;;;4.93;100.00;101121.66;5062149;28;20935;-54
2022/12/01 10:42:33;;;;;;;1.53;1.43;;;;;;;5.31;100.00;101124.56;5059353;28;20450;-54
2022/12/01 10:45:03;;;;;;;9.47;1.63;;;;;;;5.27;100.00;101124.53;5060577;28;20462;-54
2022/12/01 10:47:30;;;;;;;2.87;2.60;;;;;;;5.45;100.00;101114.09;5066106;28;20836;-54
2022/12/01 10:49:57;;;;;;;7.13;3.23;;;;;;;5.25;100.00;101119.25;5065818;28;20912;-54
2022/12/01 10:52:38;;;;;;;4.20;3.30;;;;;;;5.54;100.00;101110.63;5066058;28;20516;-54
2022/12/01 10:55:33;;;;;;;4.10;2.90;;;;;;;5.57;100.00;101114.16;5062078;28;20491;-54
2022/12/01 10:58:11;;;;;;;11.10;4.43;;;;;;;5.64;100.00;101120.38;5059657;28;20808;-54
2022/12/01 11:00:40;;;;;;;4.83;3.07;;;;;;;5.23;100.00;101112.22;5061884;28;20453;-54
2022/12/01 11:03:31;;;;;;;11.13;2.70;;;;;;;5.24;100.00;101120.13;5064643;28;20644;-53
2022/12/01 11:06:00;;;;;;;2.90;1.80;;;;;;;5.32;100.00;101118.41;5064873;28;20465;-53
2022/12/01 11:08:58;;;;;;;9.30;3.50;;;;;;;5.59;100.00;101114.16;5059130;28;20922;-54
2022/12/01 11:11:32;;;;;;;3.10;2.13;;;;;;;5.61;100.00;101115.06;5062881;28;20458;-54
2022/12/01 11:14:01;;;;;;;4.93;2.57;;;;;;;5.34;100.00;101111.41;5063883;28;20531;-54
2022/12/01 11:16:41;;;;;;;4.30;2.20;;;;;;;5.37;100.00;101100.00;5058678;28;20453;-54
2022/12/01 11:19:28;;;;;;;6.40;2.70;;;;;;;5.28;100.00;101100.81;5058837;28;20458;-53
2022/12/01 11:21:57;;;;;;;12.23;5.83;;;;;;;5.29;100.00;101093.78;5062322;28;20451;-53
2022/12/01 11:24:26;;;;;;;6.33;3.17;;;;;;;5.49;100.00;101100.06;5065101;28;20847;-53
2022/12/01 11:26:55;;;;;;;2.20;2.10;;;;;;;5.54;100.00;101095.69;5052601;28;20451;-54
2022/12/01 11:29:35;;;;;;;6.37;2.70;;;;;;;5.52;99.71;101089.53;5065430;28;20455;-54
2022/12/01 11:32:14;;;;;;;7.97;2.53;;;;;;;5.98;100.00;101088.84;5044780;28;20471;-53
2022/12/01 11:34:49;;;;;;;3.83;2.37;;;;;;;6.07;100.00;101084.50;5048149;28;20511;-54
2022/12/01 11:37:18;;;;;;;4.23;3.97;;;;;;;5.79;99.35;101087.91;5058803;28;20872;-54
2022/12/01 11:39:47;;;;;;;3.83;2.50;;;;;;;5.94;99.10;101085.34;5062000;28;20489;-54
2022/12/01 11:42:30;;;;;;;4.23;1.70;;;;;;;5.52;100.00;101092.19;5064859;28;20541;-53
2022/12/01 11:45:32;;;;;;;3.47;2.30;;;;;;;5.75;100.00;101088.75;5063064;28;20458;-53
2022/12/01 11:48:24;;;;;;;15.90;1.97;;;;;;;5.74;100.00;101082.59;5060925;28;20511;-53